createdAt,value
2023-01-27T00:02:46.375Z,56.69
2023-01-27T00:07:50.444Z,57.37
2023-01-27T00:13:12.800Z,58.15
2023-01-27T00:18:16.477Z,58.52
2023-01-27T00:23:43.827Z,59.07
2023-01-27T00:28:48.264Z,59.23
2023-01-27T00:33:54.367Z,59.74
2023-01-27T00:38:57.803Z,60.04
2023-01-27T00:44:01.901Z,60.37
2023-01-27T00:49:05.391Z,60.56
2023-01-27T00:54:09.073Z,60.72
2023-01-27T00:59:12.581Z,60.82
2023-01-27T01:04:18.834Z,61.04
2023-01-27T01:09:25.442Z,61.02
2023-01-27T01:14:28.820Z,61.03
2023-01-27T01:19:33.197Z,61.17
2023-01-27T01:24:43.302Z,61.13
2023-01-27T01:29:47.063Z,61.23
2023-01-27T01:34:50.443Z,61.30
2023-01-27T01:39:55.192Z,61.39
2023-01-27T01:45:27.992Z,61.57
2023-01-27T01:50:32.656Z,61.47
2023-01-27T01:55:38.042Z,61.52
2023-01-27T02:00:44.343Z,61.43
2023-01-27T02:05:48.150Z,61.35
2023-01-27T02:10:54.794Z,61.34
2023-01-27T02:15:58.355Z,61.40
2023-01-27T02:21:02.401Z,61.48
2023-01-27T02:26:19.851Z,61.56
2023-01-27T02:31:25.317Z,61.50
2023-01-27T02:36:32.059Z,61.64
2023-01-27T02:41:40.926Z,61.67
2023-01-27T02:46:44.588Z,61.58
2023-01-27T02:51:48.196Z,61.56
2023-01-27T02:56:52.097Z,61.52
2023-01-27T03:01:55.475Z,61.55
2023-01-27T03:06:59.055Z,61.69
2023-01-27T03:12:21.658Z,61.64
2023-01-27T03:17:43.891Z,61.54
2023-01-27T03:22:47.655Z,61.41
2023-01-27T03:27:53.072Z,61.31
2023-01-27T03:33:05.722Z,61.11
2023-01-27T03:38:39.599Z,61.31
2023-01-27T03:44:01.584Z,61.36
2023-01-27T03:49:10.514Z,61.37
2023-01-27T03:54:14.650Z,61.34
2023-01-27T03:59:18.323Z,61.52
2023-01-27T04:04:40.139Z,61.32
2023-01-27T04:09:43.328Z,61.25
2023-01-27T04:14:46.600Z,61.00
2023-01-27T04:19:49.829Z,60.70
2023-01-27T04:24:53.380Z,60.74
2023-01-27T04:29:57.378Z,61.05
2023-01-27T04:35:00.889Z,60.80
2023-01-27T04:40:04.806Z,60.81
2023-01-27T04:45:08.766Z,60.80
2023-01-27T04:50:14.600Z,60.90
2023-01-27T04:55:18.046Z,60.79
2023-01-27T05:00:22.007Z,60.68
2023-01-27T05:05:25.637Z,60.78
2023-01-27T05:10:29.367Z,60.81
2023-01-27T05:15:33.880Z,60.58
2023-01-27T05:20:37.247Z,60.56
2023-01-27T05:25:44.542Z,60.63
2023-01-27T05:30:48.144Z,60.68
2023-01-27T05:35:52.426Z,60.76
2023-01-27T05:41:02.490Z,60.86
2023-01-27T05:46:14.493Z,60.95
2023-01-27T05:51:19.975Z,60.85
2023-01-27T05:56:24.035Z,60.84
2023-01-27T06:01:30.725Z,60.92
2023-01-27T06:06:34.627Z,60.99
2023-01-27T06:11:37.975Z,61.03
2023-01-27T06:16:41.438Z,60.89
2023-01-27T06:21:45.121Z,60.52
2023-01-27T06:26:48.480Z,60.47
2023-01-27T06:31:51.913Z,60.32
2023-01-27T06:36:55.232Z,60.34
2023-01-27T06:41:58.696Z,60.54
2023-01-27T06:47:02.239Z,60.61
2023-01-27T06:52:05.726Z,60.62
2023-01-27T06:57:11.975Z,60.71
2023-01-27T07:02:15.354Z,60.72
2023-01-27T07:07:18.704Z,60.71
2023-01-27T07:12:22.445Z,60.68
2023-01-27T07:17:26.283Z,60.61
2023-01-27T07:22:33.410Z,60.66
2023-01-27T07:27:36.687Z,60.58
2023-01-27T07:32:40.311Z,60.45
2023-01-27T07:37:43.983Z,60.34
2023-01-27T07:42:48.597Z,60.23
2023-01-27T07:47:52.260Z,60.09
2023-01-27T07:53:02.866Z,59.95
2023-01-27T07:58:11.120Z,59.78
2023-01-27T08:03:26.458Z,59.73
2023-01-27T08:08:30.330Z,59.68
2023-01-27T08:13:35.733Z,59.75
2023-01-27T08:18:42.968Z,59.78
2023-01-27T08:23:48.421Z,59.86
2023-01-27T08:28:53.144Z,59.88
2023-01-27T08:33:59.057Z,59.93
2023-01-27T08:39:04.716Z,59.97
2023-01-27T08:44:11.003Z,59.84
2023-01-27T08:49:16.823Z,59.75
2023-01-27T08:54:23.191Z,59.62
2023-01-27T08:59:27.392Z,59.64
2023-01-27T09:04:32.661Z,59.58
2023-01-27T09:09:41.920Z,59.41
2023-01-27T09:14:46.113Z,59.16
2023-01-27T09:19:51.251Z,59.08
2023-01-27T09:24:55.658Z,59.10
2023-01-27T09:29:59.789Z,59.00
2023-01-27T09:35:05.377Z,58.88
2023-01-27T09:40:35.062Z,58.85
2023-01-27T09:46:13.279Z,58.96
2023-01-27T09:51:29.553Z,59.24
2023-01-27T09:56:45.039Z,59.22
2023-01-27T10:01:55.461Z,59.27
2023-01-27T10:07:38.087Z,59.26
2023-01-27T10:13:22.243Z,59.39
2023-01-27T10:18:46.363Z,59.43
2023-01-27T10:24:09.755Z,59.45
2023-01-27T10:29:33.433Z,59.45
2023-01-27T10:34:41.954Z,59.56
2023-01-27T10:40:00.291Z,59.87
2023-01-27T10:45:24.869Z,59.48
2023-01-27T10:50:37.127Z,59.37
2023-01-27T10:56:03.532Z,59.38
2023-01-27T11:01:26.205Z,59.46
2023-01-27T11:06:36.531Z,59.57
2023-01-27T11:11:47.058Z,60.13
2023-01-27T11:16:54.482Z,69.54
2023-01-27T11:22:07.531Z,54.79
2023-01-27T11:27:28.401Z,47.47
2023-01-27T11:32:47.907Z,48.19
2023-01-27T11:38:00.667Z,49.43
2023-01-27T11:43:17.484Z,50.45
2023-01-27T11:48:23.463Z,51.48
2023-01-27T11:53:37.137Z,52.90
2023-01-27T11:59:04.732Z,53.42
2023-01-27T12:04:21.581Z,54.09
2023-01-27T12:09:38.418Z,54.93
2023-01-27T12:14:49.218Z,55.73
2023-01-27T12:19:57.970Z,56.11
2023-01-27T12:25:04.997Z,56.74
2023-01-27T12:30:21.822Z,57.15
2023-01-27T12:35:35.370Z,57.64
2023-01-27T12:40:44.816Z,57.97
2023-01-27T12:46:13.527Z,58.43
2023-01-27T12:51:22.163Z,58.52
2023-01-27T12:56:26.206Z,58.82
2023-01-27T13:01:41.845Z,58.93
2023-01-27T13:06:49.818Z,59.05
2023-01-27T13:11:56.798Z,58.67
2023-01-27T13:17:01.507Z,58.95
2023-01-27T13:22:06.318Z,59.04
2023-01-27T13:27:17.588Z,59.24
2023-01-27T13:32:32.962Z,59.50
2023-01-27T13:37:53.557Z,59.56
2023-01-27T13:43:26.519Z,59.51
2023-01-27T13:48:41.875Z,59.54
2023-01-27T13:53:48.480Z,59.58
2023-01-27T13:59:11.417Z,59.73
2023-01-27T14:04:39.682Z,59.93
2023-01-27T14:10:20.106Z,60.38
2023-01-27T14:15:30.990Z,59.94
2023-01-27T14:20:37.820Z,59.90
2023-01-27T14:25:54.922Z,60.12
2023-01-27T14:31:24.879Z,60.01
2023-01-27T14:36:54.005Z,60.03
2023-01-27T14:42:14.424Z,59.95
2023-01-27T14:47:32.379Z,60.02
2023-01-27T14:52:42.165Z,60.02
2023-01-27T14:58:05.223Z,60.16
2023-01-27T15:03:33.136Z,60.04
2023-01-27T15:08:55.699Z,59.77
2023-01-27T15:14:24.115Z,59.48
2023-01-27T15:19:36.287Z,59.18
2023-01-27T15:25:27.107Z,59.25
2023-01-27T15:30:38.679Z,59.56
2023-01-27T15:35:42.509Z,59.16
2023-01-27T15:41:15.684Z,58.88
2023-01-27T15:46:26.026Z,58.88
2023-01-27T15:51:34.995Z,58.82
2023-01-27T15:56:49.167Z,58.37
2023-01-27T16:02:17.000Z,58.32
2023-01-27T16:07:32.978Z,58.15
2023-01-27T16:12:43.459Z,69.08
2023-01-27T16:18:00.905Z,53.40
2023-01-27T16:23:28.232Z,44.23
2023-01-27T16:28:34.660Z,45.42
2023-01-27T16:33:41.904Z,46.27
2023-01-27T16:38:47.286Z,49.76
2023-01-27T16:44:01.436Z,50.43
2023-01-27T16:49:20.455Z,50.63
2023-01-27T16:54:29.823Z,51.29
2023-01-27T16:59:39.004Z,51.44
2023-01-27T17:04:53.436Z,51.89
2023-01-27T17:10:00.438Z,53.43
2023-01-27T17:15:29.867Z,53.48
2023-01-27T17:20:38.120Z,54.19
2023-01-27T17:25:42.015Z,55.58
2023-01-27T17:30:47.422Z,54.90
2023-01-27T17:35:56.663Z,54.29
2023-01-27T17:41:03.659Z,54.77
2023-01-27T17:46:10.170Z,54.65
2023-01-27T17:51:20.385Z,54.90
2023-01-27T17:56:30.289Z,54.70
2023-01-27T18:01:35.216Z,54.82
2023-01-27T18:06:42.916Z,54.99
2023-01-27T18:11:57.455Z,54.93
2023-01-27T18:17:22.762Z,55.30
2023-01-27T18:22:28.365Z,55.75
2023-01-27T18:27:37.111Z,55.58
2023-01-27T18:32:44.337Z,55.55
2023-01-27T18:38:04.026Z,55.65
2023-01-27T18:43:10.596Z,55.98
2023-01-27T18:48:18.016Z,55.84
2023-01-27T18:53:22.439Z,56.14
2023-01-27T18:58:26.449Z,55.46
2023-01-27T19:03:35.250Z,55.38
2023-01-27T19:08:41.070Z,55.17
2023-01-27T19:13:46.348Z,55.11
2023-01-27T19:18:50.204Z,55.03
2023-01-27T19:26:20.842Z,55.64
2023-01-27T19:32:36.086Z,55.07
2023-01-27T19:38:52.996Z,56.34
2023-01-27T19:44:48.976Z,65.07
2023-01-27T19:51:04.371Z,45.13
2023-01-27T19:57:01.909Z,44.18
2023-01-27T20:03:17.940Z,45.36
2023-01-27T20:08:48.016Z,46.69
2023-01-27T20:14:14.559Z,48.19
2023-01-27T20:19:23.105Z,49.39
2023-01-27T20:32:04.900Z,51.03
2023-01-27T20:38:27.774Z,51.81
2023-01-27T20:44:59.545Z,53.33
2023-01-27T20:51:33.471Z,53.72
2023-01-27T20:57:31.776Z,53.86
2023-01-27T21:03:36.585Z,53.82
2023-01-27T21:09:54.551Z,54.50
2023-01-27T21:16:18.784Z,54.74
2023-01-27T21:22:38.539Z,55.20
2023-01-27T21:28:17.903Z,55.44
2023-01-27T21:34:31.985Z,55.73
2023-01-27T21:40:56.302Z,55.71
2023-01-27T21:46:40.673Z,55.74
2023-01-27T21:52:57.745Z,56.03
2023-01-27T22:02:23.114Z,56.44
2023-01-27T22:08:33.064Z,56.34
2023-01-27T22:14:09.818Z,56.52
2023-01-27T22:20:34.479Z,56.88
2023-01-27T22:26:51.989Z,56.81
2023-01-27T22:33:16.200Z,56.57
2023-01-27T22:39:30.590Z,56.74
2023-01-27T22:45:55.352Z,56.91
2023-01-27T22:52:09.643Z,56.95
2023-01-27T23:05:19.018Z,56.91
2023-01-27T23:11:25.009Z,56.93
2023-01-27T23:17:38.708Z,56.98
2023-01-27T23:23:13.019Z,56.93
2023-01-27T23:28:49.300Z,57.05
2023-01-27T23:35:13.559Z,57.02
2023-01-27T23:42:29.769Z,57.06
2023-01-27T23:48:08.298Z,57.10
